Terminal Aerodrome Forecast
Issued by NWS Denver/Boulder, CO

Home | Current Version | Previous Version | Text Only | Print | Product List | Glossary On
Versions: 1 2 3 4 5 6 7 8 9 10 11 12 13 14 15 16 17 18 19 20 21 22 23 24 25 26 27 28 29 30 31 32 33 34 35 36 37 38 39 40 41 42 43
000
FTUS45 KBOU 232156 AAC
TAFDEN
TAF AMD
KDEN 232156Z 2322/2424 03015KT P6SM VCSH BKN080 BKN120
     FM240000 04012KT P6SM SCT080 BKN120
     FM240200 06007KT P6SM SCT120
     FM240600 16006KT P6SM SCT220
     FM241500 11010KT P6SM SCT060
     FM242000 14014KT P6SM VCTS SCT080CB BKN120 PROB30 2420/2424
      VRB18G30KT -TSRA BKN080CB=

USA.gov is the U.S. government's official web portal to all federal, state and local government web resources and services.